KYA weather

Konya Airport
Konya, Konya Province, Turkey

Public forecast

Using degrees Celsius for public forecast. Weather courtesy of forecast.io.

Current aviation weather report (METAR) for Konya Airport

Retrieved 2019/12/09 07:50 UTC (14 minutes ago):

LTAN 090750Z 05004KT 010V090 8000 FEW013 BKN030 03/M00 Q1017 NOSIG RMK RWY19 06003KT 350V110

Aviation forecast (TAF) for Konya Airport

Forecast is more than 12 hours old.

Retrieved 2010/09/30 10:40 UTC (9 years ago):

TAF LTAN 301040Z 3012/0112 24012KT 9999 SCT035 BKN090 TEMPO 3012/3016 -SHRA BKN035